createdAt,value
2022-08-26T00:01:45.151Z,31.73
2022-08-26T00:04:12.397Z,33.13
2022-08-26T00:06:42.645Z,33.53
2022-08-26T00:09:16.177Z,32.65
2022-08-26T00:11:44.689Z,33.97
2022-08-26T00:14:13.361Z,33.63
2022-08-26T00:16:41.048Z,34.22
2022-08-26T00:19:16.320Z,33.83
2022-08-26T00:21:43.655Z,33.70
2022-08-26T00:24:10.951Z,33.92
2022-08-26T00:26:38.953Z,33.80
2022-08-26T00:29:08.638Z,32.90
2022-08-26T00:31:36.559Z,34.20
2022-08-26T00:34:04.632Z,33.85
2022-08-26T00:36:31.960Z,34.13
2022-08-26T00:38:59.032Z,33.30
2022-08-26T00:41:25.800Z,35.60
2022-08-26T00:43:52.929Z,34.25
2022-08-26T00:46:25.163Z,33.95
2022-08-26T00:48:57.923Z,34.83
2022-08-26T00:51:29.685Z,34.95
2022-08-26T00:54:05.859Z,35.60
2022-08-26T00:56:52.762Z,33.60
2022-08-26T00:59:21.029Z,32.70
2022-08-26T01:01:47.965Z,34.55
2022-08-26T01:04:19.803Z,34.72
2022-08-26T01:06:48.998Z,33.25
2022-08-26T01:09:17.003Z,34.30
2022-08-26T01:11:44.320Z,36.38
2022-08-26T01:14:14.291Z,34.38
2022-08-26T01:16:42.310Z,36.42
2022-08-26T01:19:45.834Z,37.72
2022-08-26T01:22:21.826Z,35.60
2022-08-26T01:24:55.884Z,31.65
2022-08-26T01:27:23.376Z,33.67
2022-08-26T01:29:51.589Z,33.65
2022-08-26T01:32:23.305Z,46.80
2022-08-26T01:34:50.548Z,33.50
2022-08-26T01:37:21.888Z,35.33
2022-08-26T01:39:51.198Z,36.75
2022-08-26T01:42:20.737Z,35.75
2022-08-26T01:44:51.953Z,36.78
2022-08-26T01:47:21.596Z,35.85
2022-08-26T01:49:51.417Z,36.28
2022-08-26T01:52:27.638Z,36.92
2022-08-26T01:54:56.825Z,36.30
2022-08-26T01:57:25.954Z,36.70
2022-08-26T01:59:57.142Z,37.38
2022-08-26T02:02:24.662Z,38.05
2022-08-26T02:04:58.586Z,37.42
2022-08-26T02:07:27.157Z,36.08
2022-08-26T02:09:53.983Z,37.30
2022-08-26T02:12:21.464Z,37.42
2022-08-26T02:14:53.628Z,35.53
2022-08-26T02:17:24.523Z,36.63
2022-08-26T02:19:51.657Z,37.30
2022-08-26T02:22:20.782Z,35.90
2022-08-26T02:24:56.254Z,37.75
2022-08-26T02:27:32.482Z,36.35
2022-08-26T02:30:18.845Z,39.08
2022-08-26T02:32:46.378Z,38.40
2022-08-26T02:35:20.019Z,36.95
2022-08-26T02:37:48.063Z,36.72
2022-08-26T02:40:21.376Z,37.42
2022-08-26T02:42:49.746Z,37.15
2022-08-26T02:45:23.371Z,37.35
2022-08-26T02:47:51.800Z,36.22
2022-08-26T02:50:20.052Z,37.88
2022-08-26T02:52:48.256Z,36.97
2022-08-26T02:55:15.457Z,36.60
2022-08-26T02:57:42.123Z,38.95
2022-08-26T03:00:11.807Z,35.67
2022-08-26T03:02:38.491Z,35.22
2022-08-26T03:05:05.684Z,35.05
2022-08-26T03:07:32.417Z,36.28
2022-08-26T03:09:59.255Z,36.47
2022-08-26T03:12:26.065Z,37.95
2022-08-26T03:14:53.076Z,37.05
2022-08-26T03:17:20.940Z,37.72
2022-08-26T03:19:50.698Z,37.45
2022-08-26T03:22:19.674Z,37.42
2022-08-26T03:24:47.273Z,35.92
2022-08-26T03:27:14.454Z,38.28
2022-08-26T03:30:00.224Z,35.92
2022-08-26T03:32:28.116Z,37.60
2022-08-26T03:34:56.406Z,36.03
2022-08-26T03:37:23.357Z,37.15
2022-08-26T03:39:50.147Z,38.85
2022-08-26T03:42:17.151Z,39.05
2022-08-26T03:44:48.299Z,40.15
2022-08-26T03:47:15.602Z,38.47
2022-08-26T03:49:42.575Z,39.53
2022-08-26T03:52:10.355Z,37.72
2022-08-26T03:54:41.254Z,39.15
2022-08-26T03:57:10.215Z,38.13
2022-08-26T03:59:36.960Z,40.42
2022-08-26T04:02:03.910Z,43.95
2022-08-26T04:04:38.478Z,37.35
2022-08-26T04:07:05.226Z,38.40
2022-08-26T04:09:32.025Z,37.67
2022-08-26T04:12:03.595Z,37.33
2022-08-26T04:14:31.064Z,37.95
2022-08-26T04:16:59.427Z,42.03
2022-08-26T04:19:26.388Z,40.85
2022-08-26T04:21:53.399Z,39.95
2022-08-26T04:24:22.722Z,38.05
2022-08-26T04:26:50.259Z,46.10
2022-08-26T04:29:20.531Z,37.85
2022-08-26T04:31:50.450Z,41.88
2022-08-26T04:34:24.364Z,37.50
2022-08-26T04:36:53.945Z,37.15
2022-08-26T04:39:20.638Z,37.78
2022-08-26T04:41:51.424Z,40.25
2022-08-26T04:44:21.625Z,37.33
2022-08-26T04:46:48.338Z,39.63
2022-08-26T04:49:15.734Z,39.83
2022-08-26T04:51:42.419Z,40.30
2022-08-26T04:54:10.908Z,36.20
2022-08-26T04:56:40.420Z,36.28
2022-08-26T04:59:16.805Z,43.40
2022-08-26T05:01:48.386Z,37.13
2022-08-26T05:04:18.814Z,36.45
2022-08-26T05:06:47.438Z,41.50
2022-08-26T05:09:15.315Z,40.25
2022-08-26T05:11:42.543Z,36.22
2022-08-26T05:14:09.611Z,38.28
2022-08-26T05:16:36.304Z,36.55
2022-08-26T05:19:04.219Z,35.80
2022-08-26T05:21:31.322Z,35.28
2022-08-26T05:23:58.368Z,37.40
2022-08-26T05:26:29.156Z,39.38
2022-08-26T05:28:57.686Z,35.55
2022-08-26T05:31:33.083Z,38.22
2022-08-26T05:34:03.719Z,34.63
2022-08-26T05:36:33.293Z,36.28
2022-08-26T05:39:02.529Z,37.15
2022-08-26T05:41:34.133Z,39.63
2022-08-26T05:44:02.055Z,35.60
2022-08-26T05:46:29.440Z,36.47
2022-08-26T05:48:57.312Z,35.78
2022-08-26T05:51:26.132Z,39.35
2022-08-26T05:53:54.928Z,36.58
2022-08-26T05:56:24.777Z,35.83
2022-08-26T05:58:52.099Z,35.30
2022-08-26T06:01:25.793Z,38.97
2022-08-26T06:04:01.289Z,36.78
2022-08-26T06:06:31.549Z,35.83
2022-08-26T06:09:00.514Z,34.75
2022-08-26T06:11:30.447Z,34.05
2022-08-26T06:14:03.600Z,35.40
2022-08-26T06:16:33.370Z,36.65
2022-08-26T06:19:02.838Z,37.58
2022-08-26T06:21:35.284Z,35.45
2022-08-26T06:24:30.720Z,37.22
2022-08-26T06:27:02.836Z,35.80
2022-08-26T06:29:33.447Z,34.92
2022-08-26T06:32:01.428Z,37.83
2022-08-26T06:34:30.569Z,36.65
2022-08-26T06:36:59.615Z,37.15
2022-08-26T06:39:26.422Z,37.60
2022-08-26T06:41:53.127Z,35.35
2022-08-26T06:44:20.221Z,35.55
2022-08-26T06:46:50.372Z,36.17
2022-08-26T06:49:17.814Z,36.20
2022-08-26T06:51:44.898Z,37.08
2022-08-26T06:54:11.889Z,35.95
2022-08-26T06:56:43.142Z,37.17
2022-08-26T06:59:11.544Z,37.45
2022-08-26T07:01:44.448Z,36.72
2022-08-26T07:04:14.381Z,35.03
2022-08-26T07:06:48.686Z,33.33
2022-08-26T07:09:16.777Z,35.05
2022-08-26T07:11:44.504Z,35.33
2022-08-26T07:14:12.561Z,33.42
2022-08-26T07:16:41.105Z,33.78
2022-08-26T07:19:11.078Z,33.15
2022-08-26T07:21:40.148Z,32.75
2022-08-26T07:24:07.014Z,33.22
2022-08-26T07:26:33.730Z,34.28
2022-08-26T07:29:01.926Z,35.33
2022-08-26T07:31:39.204Z,36.05
2022-08-26T07:34:09.727Z,37.63
2022-08-26T07:36:36.478Z,37.08
2022-08-26T07:39:03.517Z,38.17
2022-08-26T07:44:02.171Z,39.20
2022-08-26T07:46:31.267Z,39.47
2022-08-26T07:48:58.603Z,40.38
2022-08-26T07:51:27.074Z,41.90
2022-08-26T07:53:54.689Z,41.20
2022-08-26T07:56:22.925Z,41.08
2022-08-26T07:58:53.519Z,41.85
2022-08-26T08:01:23.562Z,40.50
2022-08-26T08:03:51.906Z,42.55
2022-08-26T08:06:27.277Z,42.70
2022-08-26T08:08:55.864Z,41.88
2022-08-26T08:11:23.278Z,41.20
2022-08-26T08:13:56.024Z,43.03
2022-08-26T08:16:28.149Z,42.92
2022-08-26T08:18:58.966Z,44.85
2022-08-26T08:21:26.733Z,42.92
2022-08-26T08:23:55.293Z,46.47
2022-08-26T08:26:23.327Z,46.10
2022-08-26T08:28:51.056Z,46.40
2022-08-26T08:31:54.506Z,47.10
2022-08-26T08:34:11.723Z,47.67
2022-08-26T08:36:38.403Z,48.85
2022-08-26T08:39:05.174Z,47.30
2022-08-26T08:41:59.981Z,49.00
2022-08-26T08:47:01.656Z,49.42
2022-08-26T08:49:30.781Z,50.85
2022-08-26T08:52:09.436Z,50.92
2022-08-26T08:54:38.475Z,50.90
2022-08-26T08:57:37.454Z,51.15
2022-08-26T09:00:17.896Z,51.67
2022-08-26T09:02:52.773Z,53.97
2022-08-26T09:08:27.377Z,56.65
2022-08-26T09:11:00.829Z,56.97
2022-08-26T09:13:29.095Z,57.80
2022-08-26T09:16:20.347Z,57.08
2022-08-26T09:19:18.848Z,56.70
2022-08-26T09:21:46.457Z,60.17
2022-08-26T09:24:20.318Z,60.75
2022-08-26T09:26:49.448Z,61.42
2022-08-26T09:29:24.571Z,63.85
2022-08-26T09:32:12.796Z,61.97
2022-08-26T09:34:59.337Z,63.67
2022-08-26T09:37:39.445Z,64.80
2022-08-26T09:40:27.133Z,63.97
2022-08-26T09:43:06.521Z,65.43
2022-08-26T09:45:34.237Z,64.22
2022-08-26T09:48:02.337Z,63.75
2022-08-26T09:50:37.703Z,66.72
2022-08-26T09:53:12.981Z,61.55
2022-08-26T09:55:45.975Z,65.60
2022-08-26T09:58:35.534Z,67.38
2022-08-26T10:01:08.775Z,62.30
2022-08-26T10:03:37.957Z,59.00
2022-08-26T10:06:28.570Z,63.70
2022-08-26T10:08:58.899Z,65.97
2022-08-26T10:11:49.992Z,64.80
2022-08-26T10:14:39.434Z,62.78
2022-08-26T10:17:06.980Z,66.43
2022-08-26T10:19:56.497Z,70.78
2022-08-26T10:22:42.422Z,64.57
2022-08-26T10:25:15.871Z,64.35
2022-08-26T10:28:17.896Z,62.15
2022-08-26T10:30:56.093Z,56.30
2022-08-26T10:33:24.193Z,58.70
2022-08-26T10:36:05.955Z,58.67
2022-08-26T10:38:37.637Z,62.15
2022-08-26T10:41:13.136Z,62.78
2022-08-26T10:43:51.495Z,62.83
2022-08-26T10:46:23.944Z,61.90
2022-08-26T10:48:54.189Z,61.35
2022-08-26T10:51:31.938Z,63.08
2022-08-26T10:53:59.777Z,63.38
2022-08-26T10:56:44.646Z,63.20
2022-08-26T10:59:29.450Z,62.47
2022-08-26T11:02:21.512Z,66.30
2022-08-26T11:05:04.507Z,61.92
2022-08-26T11:07:34.131Z,61.30
2022-08-26T11:10:08.183Z,61.13
2022-08-26T11:12:34.812Z,66.55
2022-08-26T11:15:24.353Z,68.45
2022-08-26T11:17:51.831Z,65.40
2022-08-26T11:20:28.408Z,72.13
2022-08-26T11:22:56.571Z,66.57
2022-08-26T11:25:30.198Z,63.70
2022-08-26T11:27:59.817Z,67.82
2022-08-26T11:30:38.706Z,64.65
2022-08-26T11:33:08.198Z,67.78
2022-08-26T11:35:37.684Z,71.22
2022-08-26T11:38:29.223Z,69.07
2022-08-26T11:41:09.490Z,68.03
2022-08-26T11:43:38.563Z,73.60
2022-08-26T11:46:11.433Z,70.55
2022-08-26T11:48:41.266Z,72.70
2022-08-26T11:51:22.921Z,76.22
2022-08-26T11:53:49.867Z,83.47
2022-08-26T11:56:25.766Z,78.60
2022-08-26T11:58:56.627Z,81.80
2022-08-26T12:01:36.150Z,80.32
2022-08-26T12:04:10.329Z,81.63
2022-08-26T12:06:47.664Z,79.32
2022-08-26T12:09:27.705Z,77.40
2022-08-26T12:12:11.262Z,74.43
2022-08-26T12:14:39.650Z,73.47
2022-08-26T12:17:17.374Z,74.38
2022-08-26T12:19:46.160Z,76.80
2022-08-26T12:22:22.092Z,69.65
2022-08-26T12:24:52.825Z,73.18
2022-08-26T12:27:32.094Z,70.45
2022-08-26T12:30:04.777Z,69.80
2022-08-26T12:37:41.130Z,67.28
2022-08-26T12:43:01.803Z,65.90
2022-08-26T12:45:43.051Z,72.22
2022-08-26T12:48:34.945Z,70.82
2022-08-26T12:51:02.579Z,69.03
2022-08-26T12:53:33.324Z,68.03
2022-08-26T12:56:04.488Z,65.75
2022-08-26T12:58:39.381Z,72.60
2022-08-26T13:01:09.389Z,68.43
2022-08-26T13:03:43.202Z,66.82
2022-08-26T13:06:29.513Z,67.57
2022-08-26T13:09:06.464Z,61.78
2022-08-26T13:11:39.439Z,61.28
2022-08-26T13:14:21.035Z,64.03
2022-08-26T13:16:52.917Z,66.60
2022-08-26T13:19:23.307Z,62.90
2022-08-26T13:21:53.791Z,65.07
2022-08-26T13:24:26.208Z,63.83
2022-08-26T13:26:53.093Z,66.43
2022-08-26T13:29:20.050Z,65.60
2022-08-26T13:31:47.759Z,66.53
2022-08-26T13:34:20.565Z,61.40
2022-08-26T13:36:49.433Z,63.38
2022-08-26T13:39:17.301Z,66.15
2022-08-26T13:41:44.199Z,65.13
2022-08-26T13:44:11.790Z,67.45
2022-08-26T13:46:38.761Z,70.78
2022-08-26T13:49:06.469Z,66.68
2022-08-26T13:51:33.770Z,64.05
2022-08-26T13:54:00.843Z,67.65
2022-08-26T13:56:29.567Z,64.95
2022-08-26T13:58:57.645Z,64.85
2022-08-26T14:01:24.657Z,68.63
2022-08-26T14:03:52.112Z,69.95
2022-08-26T14:06:19.270Z,68.88
2022-08-26T14:08:46.918Z,66.63
2022-08-26T14:11:13.689Z,64.97
2022-08-26T14:13:40.533Z,65.40
2022-08-26T14:16:10.693Z,67.55
2022-08-26T14:18:45.209Z,67.57
2022-08-26T14:21:14.539Z,65.83
2022-08-26T14:23:41.845Z,65.82
2022-08-26T14:26:10.825Z,65.70
2022-08-26T14:28:41.794Z,67.57
2022-08-26T14:31:08.780Z,65.35
2022-08-26T14:33:38.113Z,63.92
2022-08-26T14:36:26.648Z,65.22
2022-08-26T14:38:54.836Z,66.93
2022-08-26T14:41:24.471Z,62.15
2022-08-26T14:44:07.809Z,66.13
2022-08-26T14:46:41.694Z,63.22
2022-08-26T14:49:10.691Z,65.63
2022-08-26T14:51:38.567Z,63.92
2022-08-26T14:54:14.554Z,63.15
2022-08-26T14:56:48.801Z,60.72
2022-08-26T14:59:20.699Z,61.97
2022-08-26T15:01:48.212Z,62.58
2022-08-26T15:04:15.886Z,61.65
2022-08-26T15:06:42.840Z,62.33
2022-08-26T15:09:10.084Z,63.63
2022-08-26T15:11:37.009Z,62.13
2022-08-26T15:14:04.120Z,61.80
2022-08-26T15:16:31.460Z,64.28
2022-08-26T15:19:00.389Z,58.45
2022-08-26T15:21:27.159Z,63.38
2022-08-26T15:23:54.423Z,63.90
2022-08-26T15:26:22.943Z,61.88
2022-08-26T15:28:50.021Z,58.10
2022-08-26T15:31:17.838Z,61.08
2022-08-26T15:33:45.569Z,59.90
2022-08-26T15:36:12.330Z,61.03
2022-08-26T15:38:42.160Z,60.83
2022-08-26T15:41:09.532Z,60.50
2022-08-26T15:43:37.839Z,58.17
2022-08-26T15:46:05.037Z,57.10
2022-08-26T15:48:31.831Z,58.80
2022-08-26T15:51:00.761Z,58.50
2022-08-26T15:53:30.179Z,57.17
2022-08-26T15:55:58.077Z,56.78
2022-08-26T15:58:26.451Z,56.80
2022-08-26T16:00:55.202Z,55.70
2022-08-26T16:03:22.532Z,54.67
2022-08-26T16:05:49.507Z,55.03
2022-08-26T16:08:17.455Z,52.28
2022-08-26T16:10:50.026Z,51.92
2022-08-26T16:13:19.836Z,50.55
2022-08-26T16:15:47.966Z,51.90
2022-08-26T16:18:15.415Z,52.70
2022-08-26T16:21:12.758Z,53.75
2022-08-26T16:23:38.324Z,55.38
2022-08-26T16:26:14.394Z,51.67
2022-08-26T16:28:41.309Z,51.75
2022-08-26T16:31:10.953Z,49.63
2022-08-26T16:33:37.844Z,49.28
2022-08-26T16:36:06.266Z,54.25
2022-08-26T16:38:33.656Z,53.95
2022-08-26T16:41:01.035Z,62.05
2022-08-26T16:43:28.326Z,56.10
2022-08-26T16:45:55.858Z,55.85
2022-08-26T16:48:23.453Z,56.15
2022-08-26T16:50:51.036Z,55.63
2022-08-26T16:53:18.578Z,57.55
2022-08-26T16:55:46.942Z,54.03
2022-08-26T16:58:14.647Z,55.42
2022-08-26T17:00:41.894Z,48.33
2022-08-26T17:03:09.329Z,41.30
2022-08-26T17:05:36.463Z,41.80
2022-08-26T17:08:04.579Z,40.30
2022-08-26T17:10:32.717Z,36.28
2022-08-26T17:12:59.864Z,37.05
2022-08-26T17:15:27.168Z,38.85
2022-08-26T17:17:54.795Z,39.92
2022-08-26T17:20:23.244Z,38.95
2022-08-26T17:22:52.258Z,38.42
2022-08-26T17:25:26.027Z,37.97
2022-08-26T17:27:53.198Z,36.80
2022-08-26T17:30:20.960Z,35.47
2022-08-26T17:32:48.162Z,35.97
2022-08-26T17:35:16.284Z,34.80
2022-08-26T17:37:43.488Z,34.47
2022-08-26T17:40:15.416Z,36.22
2022-08-26T17:42:43.040Z,37.42
2022-08-26T17:45:10.930Z,34.58
2022-08-26T17:47:38.079Z,36.08
2022-08-26T17:50:07.128Z,35.17
2022-08-26T17:52:33.830Z,36.92
2022-08-26T17:55:00.573Z,35.05
2022-08-26T17:57:27.476Z,34.55
2022-08-26T17:59:56.403Z,32.70
2022-08-26T18:02:23.285Z,32.00
2022-08-26T18:04:50.055Z,33.80
2022-08-26T18:07:17.341Z,32.65
2022-08-26T18:09:44.438Z,33.20
2022-08-26T18:12:12.151Z,33.28
2022-08-26T18:14:38.936Z,32.75
2022-08-26T18:17:05.795Z,31.77
2022-08-26T18:19:32.515Z,32.08
2022-08-26T18:21:59.294Z,32.92
2022-08-26T18:24:28.554Z,33.28
2022-08-26T18:26:55.738Z,32.85
2022-08-26T18:29:25.217Z,31.25
2022-08-26T18:31:52.431Z,31.88
2022-08-26T18:34:19.327Z,31.42
2022-08-26T18:36:46.986Z,32.38
2022-08-26T18:39:14.650Z,31.77
2022-08-26T18:41:46.776Z,31.45
2022-08-26T18:44:16.107Z,32.33
2022-08-26T18:46:45.075Z,30.40
2022-08-26T18:49:14.363Z,30.67
2022-08-26T18:51:42.531Z,32.55
2022-08-26T18:54:10.031Z,31.52
2022-08-26T18:56:38.771Z,30.88
2022-08-26T18:59:07.351Z,31.05
2022-08-26T19:01:36.184Z,30.80
2022-08-26T19:04:05.493Z,29.50
2022-08-26T19:06:35.429Z,28.63
2022-08-26T19:09:04.534Z,29.50
2022-08-26T19:11:37.290Z,29.38
2022-08-26T19:14:12.931Z,29.92
2022-08-26T19:16:43.235Z,29.85
2022-08-26T19:19:10.447Z,28.83
2022-08-26T19:21:38.016Z,29.63
2022-08-26T19:24:09.268Z,29.20
2022-08-26T19:26:36.472Z,29.77
2022-08-26T19:29:03.889Z,28.75
2022-08-26T19:31:31.141Z,27.95
2022-08-26T19:33:58.895Z,27.83
2022-08-26T19:36:26.903Z,28.98
2022-08-26T19:38:54.385Z,28.30
2022-08-26T19:41:37.162Z,28.60
2022-08-26T19:44:10.871Z,28.83
2022-08-26T19:49:06.384Z,27.23
2022-08-26T19:51:35.448Z,28.33
2022-08-26T19:54:02.675Z,26.90
2022-08-26T19:56:30.028Z,27.85
2022-08-26T19:58:57.237Z,28.63
2022-08-26T20:01:24.501Z,29.13
2022-08-26T20:03:51.545Z,30.00
2022-08-26T20:06:19.887Z,30.20
2022-08-26T20:08:46.869Z,30.73
2022-08-26T20:11:15.768Z,31.98
2022-08-26T20:13:43.704Z,31.63
2022-08-26T20:16:11.757Z,31.40
2022-08-26T20:18:59.028Z,31.42
2022-08-26T20:21:26.198Z,30.40
2022-08-26T20:24:00.384Z,33.40
2022-08-26T20:26:29.536Z,33.58
2022-08-26T20:28:57.087Z,32.83
2022-08-26T20:31:25.349Z,32.05
2022-08-26T20:33:52.655Z,32.50
2022-08-26T20:36:21.059Z,33.35
2022-08-26T20:38:49.032Z,31.10
2022-08-26T20:41:16.919Z,30.80
2022-08-26T20:43:44.045Z,33.40
2022-08-26T20:46:12.780Z,32.28
2022-08-26T20:48:45.765Z,32.38
2022-08-26T20:51:12.990Z,34.10
2022-08-26T20:53:40.132Z,32.30
2022-08-26T20:56:08.674Z,30.98
2022-08-26T20:58:35.558Z,32.58
2022-08-26T21:01:07.369Z,33.72
2022-08-26T21:03:35.720Z,32.65
2022-08-26T21:06:03.745Z,30.65
2022-08-26T21:08:33.128Z,30.52
2022-08-26T21:11:00.888Z,31.35
2022-08-26T21:13:42.927Z,31.48
2022-08-26T21:16:15.289Z,32.15
2022-08-26T21:18:42.839Z,30.70
2022-08-26T21:21:10.079Z,31.52
2022-08-26T21:23:37.651Z,31.02
2022-08-26T21:26:07.138Z,30.60
2022-08-26T21:28:39.343Z,30.63
2022-08-26T21:31:08.400Z,31.48
2022-08-26T21:33:35.684Z,28.90
2022-08-26T21:36:03.861Z,28.85
2022-08-26T21:38:31.316Z,27.40
2022-08-26T21:41:06.921Z,26.52
2022-08-26T21:43:35.789Z,35.13
2022-08-26T21:46:11.472Z,30.60
2022-08-26T21:48:39.466Z,26.02
2022-08-26T21:51:06.750Z,37.45
2022-08-26T21:53:34.020Z,26.15
2022-08-26T21:56:10.278Z,27.77
2022-08-26T21:58:37.130Z,37.50
2022-08-26T22:01:04.557Z,23.73
2022-08-26T22:03:31.318Z,23.88
2022-08-26T22:06:07.990Z,25.83
2022-08-26T22:08:34.790Z,26.00
2022-08-26T22:11:02.208Z,21.42
2022-08-26T22:13:32.554Z,23.23
2022-08-26T22:15:59.949Z,23.08
2022-08-26T22:18:28.290Z,24.15
2022-08-26T22:20:57.498Z,27.15
2022-08-26T22:23:24.702Z,24.60
2022-08-26T22:25:51.920Z,26.45
2022-08-26T22:28:18.734Z,28.08
2022-08-26T22:30:46.664Z,25.98
2022-08-26T22:33:14.322Z,27.02
2022-08-26T22:35:49.653Z,26.02
2022-08-26T22:38:17.213Z,24.17
2022-08-26T22:40:47.329Z,26.52
2022-08-26T22:43:14.786Z,27.23
2022-08-26T22:45:43.998Z,27.20
2022-08-26T22:48:12.301Z,27.33
2022-08-26T22:50:39.103Z,25.88
2022-08-26T22:53:05.755Z,29.45
2022-08-26T22:55:32.569Z,25.98
2022-08-26T22:58:00.016Z,29.00
2022-08-26T23:00:32.184Z,26.95
2022-08-26T23:03:00.261Z,26.10
2022-08-26T23:05:27.545Z,27.88
2022-08-26T23:07:56.103Z,28.10
2022-08-26T23:10:23.799Z,26.95
2022-08-26T23:12:52.253Z,26.67
2022-08-26T23:15:20.220Z,26.40
2022-08-26T23:17:48.085Z,28.02
2022-08-26T23:20:26.156Z,27.08
2022-08-26T23:22:53.474Z,25.88
2022-08-26T23:25:20.287Z,25.77
2022-08-26T23:27:48.360Z,28.73
2022-08-26T23:30:18.840Z,25.38
2022-08-26T23:32:45.912Z,27.05
2022-08-26T23:35:14.444Z,27.67
2022-08-26T23:37:44.061Z,24.15
2022-08-26T23:40:32.803Z,29.50
2022-08-26T23:43:03.140Z,26.48
2022-08-26T23:45:30.379Z,26.38
2022-08-26T23:47:57.520Z,25.08
2022-08-26T23:50:49.341Z,25.05
2022-08-26T23:53:20.921Z,25.00
2022-08-26T23:55:49.693Z,24.92
2022-08-26T23:58:18.157Z,24.15
